sensor_id;sensor_type;location;lat;lon;timestamp;pressure;altitude;pressure_sealevel;temperature;humidity
68179;BME280;54998;42.656;23.382;2022-08-21T00:01:16;94364.63;;;17.27;88.45
68179;BME280;54998;42.656;23.382;2022-08-21T00:03:41;94362.47;;;17.37;87.68
68179;BME280;54998;42.656;23.382;2022-08-21T00:06:07;94354.28;;;17.40;87.47
68179;BME280;54998;42.656;23.382;2022-08-21T00:08:33;94344.16;;;17.52;87.65
68179;BME280;54998;42.656;23.382;2022-08-21T00:10:59;94345.16;;;17.51;87.22
68179;BME280;54998;42.656;23.382;2022-08-21T00:13:24;94337.56;;;17.50;87.16
68179;BME280;54998;42.656;23.382;2022-08-21T00:15:50;94341.53;;;17.45;86.28
68179;BME280;54998;42.656;23.382;2022-08-21T00:18:17;94347.31;;;17.41;86.13
68179;BME280;54998;42.656;23.382;2022-08-21T00:20:43;94347.44;;;17.26;86.87
68179;BME280;54998;42.656;23.382;2022-08-21T00:23:09;94344.06;;;17.32;86.53
68179;BME280;54998;42.656;23.382;2022-08-21T00:25:35;94333.94;;;17.37;86.83
68179;BME280;54998;42.656;23.382;2022-08-21T00:28:01;94337.13;;;17.39;86.77
68179;BME280;54998;42.656;23.382;2022-08-21T00:30:28;94331.97;;;17.39;86.59
68179;BME280;54998;42.656;23.382;2022-08-21T00:32:55;94328.97;;;17.42;86.24
68179;BME280;54998;42.656;23.382;2022-08-21T00:35:25;94333.34;;;17.42;86.04
68179;BME280;54998;42.656;23.382;2022-08-21T00:37:52;94332.34;;;17.43;86.25
68179;BME280;54998;42.656;23.382;2022-08-21T00:40:28;94333.09;;;17.30;86.75
68179;BME280;54998;42.656;23.382;2022-08-21T00:42:54;94338.09;;;17.32;86.69
68179;BME280;54998;42.656;23.382;2022-08-21T00:45:21;94342.47;;;17.24;86.07
68179;BME280;54998;42.656;23.382;2022-08-21T00:47:47;94341.47;;;17.25;86.21
68179;BME280;54998;42.656;23.382;2022-08-21T00:50:13;94340.72;;;17.38;87.00
68179;BME280;54998;42.656;23.382;2022-08-21T00:52:39;94346.72;;;17.45;86.45
68179;BME280;54998;42.656;23.382;2022-08-21T00:55:08;94347.16;;;17.56;87.28
68179;BME280;54998;42.656;23.382;2022-08-21T00:57:42;94343.56;;;17.50;86.75
68179;BME280;54998;42.656;23.382;2022-08-21T01:00:13;94335.59;;;17.58;85.56
68179;BME280;54998;42.656;23.382;2022-08-21T01:02:39;94331.38;;;17.44;85.68
68179;BME280;54998;42.656;23.382;2022-08-21T01:05:06;94330.78;;;17.55;86.13
68179;BME280;54998;42.656;23.382;2022-08-21T01:07:31;94322.81;;;17.57;85.48
68179;BME280;54998;42.656;23.382;2022-08-21T01:09:57;94316.41;;;17.39;85.44
68179;BME280;54998;42.656;23.382;2022-08-21T01:12:23;94317.78;;;17.42;85.13
68179;BME280;54998;42.656;23.382;2022-08-21T01:14:49;94317.38;;;17.45;84.34
68179;BME280;54998;42.656;23.382;2022-08-21T01:17:15;94317.41;;;17.52;85.16
68179;BME280;54998;42.656;23.382;2022-08-21T01:19:41;94325.59;;;17.55;84.30
68179;BME280;54998;42.656;23.382;2022-08-21T01:22:07;94324.00;;;17.54;84.45
68179;BME280;54998;42.656;23.382;2022-08-21T01:24:32;94321.59;;;17.46;84.91
68179;BME280;54998;42.656;23.382;2022-08-21T01:26:59;94304.81;;;17.35;84.62
68179;BME280;54998;42.656;23.382;2022-08-21T01:31:53;94310.38;;;17.32;85.31
68179;BME280;54998;42.656;23.382;2022-08-21T01:34:18;94307.16;;;17.30;85.41
68179;BME280;54998;42.656;23.382;2022-08-21T01:36:46;94310.34;;;17.25;85.43
68179;BME280;54998;42.656;23.382;2022-08-21T01:39:12;94314.16;;;17.30;84.83
68179;BME280;54998;42.656;23.382;2022-08-21T01:41:38;94324.53;;;17.30;84.67
68179;BME280;54998;42.656;23.382;2022-08-21T01:44:04;94317.94;;;17.27;84.96
68179;BME280;54998;42.656;23.382;2022-08-21T01:46:29;94316.41;;;17.39;85.38
68179;BME280;54998;42.656;23.382;2022-08-21T01:48:55;94317.56;;;17.43;85.06
68179;BME280;54998;42.656;23.382;2022-08-21T01:51:20;94317.00;;;17.41;84.90
68179;BME280;54998;42.656;23.382;2022-08-21T01:53:47;94324.78;;;17.41;85.08
68179;BME280;54998;42.656;23.382;2022-08-21T01:56:15;94319.53;;;17.28;84.95
68179;BME280;54998;42.656;23.382;2022-08-21T01:58:44;94329.91;;;17.28;85.21
68179;BME280;54998;42.656;23.382;2022-08-21T02:01:10;94333.03;;;17.17;85.42
68179;BME280;54998;42.656;23.382;2022-08-21T02:03:36;94331.50;;;17.22;85.84
68179;BME280;54998;42.656;23.382;2022-08-21T02:06:03;94329.09;;;17.21;85.48
68179;BME280;54998;42.656;23.382;2022-08-21T02:08:29;94327.28;;;17.21;85.18
68179;BME280;54998;42.656;23.382;2022-08-21T02:10:54;94330.63;;;17.09;85.20
68179;BME280;54998;42.656;23.382;2022-08-21T02:13:20;94330.41;;;17.03;85.76
68179;BME280;54998;42.656;23.382;2022-08-21T02:15:45;94335.59;;;17.03;85.84
68179;BME280;54998;42.656;23.382;2022-08-21T02:18:11;94339.22;;;17.09;86.14
68179;BME280;54998;42.656;23.382;2022-08-21T02:20:39;94340.38;;;17.07;85.93
68179;BME280;54998;42.656;23.382;2022-08-21T02:25:48;94333.91;;;17.24;85.48
68179;BME280;54998;42.656;23.382;2022-08-21T02:28:14;94337.88;;;17.27;85.04
68179;BME280;54998;42.656;23.382;2022-08-21T02:30:43;94351.63;;;17.20;84.75
68179;BME280;54998;42.656;23.382;2022-08-21T02:33:10;94352.97;;;17.10;84.72
68179;BME280;54998;42.656;23.382;2022-08-21T02:35:38;94347.38;;;17.13;85.36
68179;BME280;54998;42.656;23.382;2022-08-21T02:38:10;94354.59;;;17.17;85.06
68179;BME280;54998;42.656;23.382;2022-08-21T02:40:39;94351.00;;;17.18;84.68
68179;BME280;54998;42.656;23.382;2022-08-21T02:43:05;94347.03;;;17.16;84.47
68179;BME280;54998;42.656;23.382;2022-08-21T02:45:31;94337.75;;;17.00;85.56
68179;BME280;54998;42.656;23.382;2022-08-21T02:48:02;94342.56;;;17.03;85.55
68179;BME280;54998;42.656;23.382;2022-08-21T02:50:32;94339.22;;;17.09;85.60
68179;BME280;54998;42.656;23.382;2022-08-21T02:52:58;94335.44;;;17.12;84.46
68179;BME280;54998;42.656;23.382;2022-08-21T02:55:25;94356.16;;;17.12;84.15
68179;BME280;54998;42.656;23.382;2022-08-21T02:57:52;94349.94;;;17.06;84.16
68179;BME280;54998;42.656;23.382;2022-08-21T03:00:19;94352.69;;;16.98;83.94
68179;BME280;54998;42.656;23.382;2022-08-21T03:02:46;94355.72;;;17.01;83.74
68179;BME280;54998;42.656;23.382;2022-08-21T03:05:12;94343.78;;;17.07;83.22
68179;BME280;54998;42.656;23.382;2022-08-21T03:07:38;94344.91;;;16.98;83.29
68179;BME280;54998;42.656;23.382;2022-08-21T03:10:05;94349.09;;;16.92;83.27
68179;BME280;54998;42.656;23.382;2022-08-21T03:12:31;94344.78;;;16.78;83.91
68179;BME280;54998;42.656;23.382;2022-08-21T03:14:57;94346.84;;;16.82;83.56
68179;BME280;54998;42.656;23.382;2022-08-21T03:17:23;94349.31;;;16.97;83.67
68179;BME280;54998;42.656;23.382;2022-08-21T03:19:49;94343.19;;;17.05;81.98
68179;BME280;54998;42.656;23.382;2022-08-21T03:22:15;94341.78;;;17.02;81.67
68179;BME280;54998;42.656;23.382;2022-08-21T03:24:40;94344.75;;;16.99;81.56
68179;BME280;54998;42.656;23.382;2022-08-21T03:27:06;94347.91;;;16.95;82.12
68179;BME280;54998;42.656;23.382;2022-08-21T03:29:31;94350.47;;;16.88;82.38
68179;BME280;54998;42.656;23.382;2022-08-21T03:31:57;94344.88;;;16.91;82.75
68179;BME280;54998;42.656;23.382;2022-08-21T03:34:22;94342.78;;;17.08;82.49
68179;BME280;54998;42.656;23.382;2022-08-21T03:36:48;94344.00;;;17.12;81.36
68179;BME280;54998;42.656;23.382;2022-08-21T03:39:15;94343.44;;;17.23;81.33
68179;BME280;54998;42.656;23.382;2022-08-21T03:41:40;94354.38;;;17.12;81.75
68179;BME280;54998;42.656;23.382;2022-08-21T03:44:06;94355.94;;;17.07;81.52
68179;BME280;54998;42.656;23.382;2022-08-21T03:46:32;94355.28;;;16.98;82.35
68179;BME280;54998;42.656;23.382;2022-08-21T03:48:57;94345.94;;;16.97;82.71
68179;BME280;54998;42.656;23.382;2022-08-21T03:51:23;94345.25;;;16.81;83.67
68179;BME280;54998;42.656;23.382;2022-08-21T03:53:48;94345.56;;;16.78;84.66
68179;BME280;54998;42.656;23.382;2022-08-21T03:56:14;94355.63;;;16.81;85.85
68179;BME280;54998;42.656;23.382;2022-08-21T03:58:41;94357.19;;;16.82;86.17
68179;BME280;54998;42.656;23.382;2022-08-21T04:01:07;94356.94;;;16.77;86.12
68179;BME280;54998;42.656;23.382;2022-08-21T04:03:35;94357.09;;;16.69;86.46
68179;BME280;54998;42.656;23.382;2022-08-21T04:06:01;94364.47;;;16.66;86.20
68179;BME280;54998;42.656;23.382;2022-08-21T04:08:27;94365.44;;;16.64;86.57
68179;BME280;54998;42.656;23.382;2022-08-21T04:10:54;94374.75;;;16.59;86.09
68179;BME280;54998;42.656;23.382;2022-08-21T04:13:20;94360.66;;;16.61;86.47
68179;BME280;54998;42.656;23.382;2022-08-21T04:15:46;94365.34;;;16.51;87.22
68179;BME280;54998;42.656;23.382;2022-08-21T04:18:12;94355.66;;;16.60;87.06
68179;BME280;54998;42.656;23.382;2022-08-21T04:20:39;94354.25;;;16.57;86.98
68179;BME280;54998;42.656;23.382;2022-08-21T04:23:06;94358.47;;;16.65;86.71
68179;BME280;54998;42.656;23.382;2022-08-21T04:25:31;94357.31;;;16.68;86.75
68179;BME280;54998;42.656;23.382;2022-08-21T04:27:57;94360.69;;;16.68;86.66
68179;BME280;54998;42.656;23.382;2022-08-21T04:30:23;94361.09;;;16.72;86.27
68179;BME280;54998;42.656;23.382;2022-08-21T04:32:50;94363.06;;;16.70;86.12
68179;BME280;54998;42.656;23.382;2022-08-21T04:35:21;94364.88;;;16.69;86.01
68179;BME280;54998;42.656;23.382;2022-08-21T04:37:47;94362.09;;;16.71;86.09
68179;BME280;54998;42.656;23.382;2022-08-21T04:40:15;94353.53;;;16.70;85.90
68179;BME280;54998;42.656;23.382;2022-08-21T04:42:46;94353.19;;;16.80;85.28
68179;BME280;54998;42.656;23.382;2022-08-21T04:47:52;94364.97;;;16.54;85.82
68179;BME280;54998;42.656;23.382;2022-08-21T04:50:20;94355.06;;;16.64;85.76
68179;BME280;54998;42.656;23.382;2022-08-21T04:52:47;94353.56;;;16.77;84.68
68179;BME280;54998;42.656;23.382;2022-08-21T04:55:13;94355.06;;;16.93;83.80
68179;BME280;54998;42.656;23.382;2022-08-21T04:57:39;94360.34;;;17.13;83.00
68179;BME280;54998;42.656;23.382;2022-08-21T05:00:06;94351.84;;;17.25;82.11
68179;BME280;54998;42.656;23.382;2022-08-21T05:02:32;94353.47;;;17.33;82.17
68179;BME280;54998;42.656;23.382;2022-08-21T05:04:58;94351.94;;;17.52;80.32
68179;BME280;54998;42.656;23.382;2022-08-21T05:07:26;94357.75;;;17.61;79.53
68179;BME280;54998;42.656;23.382;2022-08-21T05:09:54;94357.78;;;17.74;79.33
68179;BME280;54998;42.656;23.382;2022-08-21T05:12:21;94348.84;;;17.83;79.36
68179;BME280;54998;42.656;23.382;2022-08-21T05:14:46;94354.66;;;18.05;77.96
68179;BME280;54998;42.656;23.382;2022-08-21T05:17:12;94361.28;;;18.35;76.04
68179;BME280;54998;42.656;23.382;2022-08-21T05:19:38;94360.06;;;18.71;75.43
68179;BME280;54998;42.656;23.382;2022-08-21T05:22:03;94354.34;;;19.27;75.09
68179;BME280;54998;42.656;23.382;2022-08-21T05:24:29;94347.78;;;20.01;73.15
68179;BME280;54998;42.656;23.382;2022-08-21T05:26:54;94342.59;;;20.26;71.02
68179;BME280;54998;42.656;23.382;2022-08-21T05:29:20;94347.16;;;20.63;68.07
68179;BME280;54998;42.656;23.382;2022-08-21T05:31:46;94356.28;;;20.72;67.34
68179;BME280;54998;42.656;23.382;2022-08-21T05:34:14;94345.13;;;20.83;66.19
68179;BME280;54998;42.656;23.382;2022-08-21T05:36:40;94346.56;;;20.79;65.61
68179;BME280;54998;42.656;23.382;2022-08-21T05:39:05;94347.03;;;21.13;65.55
68179;BME280;54998;42.656;23.382;2022-08-21T05:41:30;94345.75;;;22.79;60.63
68179;BME280;54998;42.656;23.382;2022-08-21T05:43:56;94340.34;;;25.03;55.07
68179;BME280;54998;42.656;23.382;2022-08-21T05:46:21;94334.34;;;24.86;54.78
68179;BME280;54998;42.656;23.382;2022-08-21T05:48:47;94333.13;;;27.74;46.83
68179;BME280;54998;42.656;23.382;2022-08-21T05:51:14;94324.69;;;29.05;43.76
68179;BME280;54998;42.656;23.382;2022-08-21T05:53:41;94331.59;;;29.76;41.50
68179;BME280;54998;42.656;23.382;2022-08-21T05:56:11;94327.53;;;30.97;39.20
68179;BME280;54998;42.656;23.382;2022-08-21T05:58:37;94324.63;;;31.66;36.61
68179;BME280;54998;42.656;23.382;2022-08-21T06:01:03;94320.03;;;29.57;40.78
68179;BME280;54998;42.656;23.382;2022-08-21T06:03:31;94340.03;;;26.47;47.70
68179;BME280;54998;42.656;23.382;2022-08-21T06:05:57;94333.19;;;25.87;49.59
68179;BME280;54998;42.656;23.382;2022-08-21T06:08:24;94327.16;;;23.80;55.29
68179;BME280;54998;42.656;23.382;2022-08-21T06:10:51;94331.34;;;23.81;55.89
68179;BME280;54998;42.656;23.382;2022-08-21T06:13:18;94332.19;;;24.83;52.96
68179;BME280;54998;42.656;23.382;2022-08-21T06:15:44;94325.78;;;26.70;48.69
68179;BME280;54998;42.656;23.382;2022-08-21T06:18:10;94320.53;;;28.78;43.45
68179;BME280;54998;42.656;23.382;2022-08-21T06:20:36;94314.22;;;28.23;43.57
68179;BME280;54998;42.656;23.382;2022-08-21T06:23:02;94312.66;;;28.63;43.33
68179;BME280;54998;42.656;23.382;2022-08-21T06:25:27;94330.06;;;28.28;43.19
68179;BME280;54998;42.656;23.382;2022-08-21T06:27:53;94322.94;;;28.59;44.10
68179;BME280;54998;42.656;23.382;2022-08-21T06:30:24;94322.72;;;29.52;40.79
68179;BME280;54998;42.656;23.382;2022-08-21T06:32:50;94320.72;;;29.18;41.23
68179;BME280;54998;42.656;23.382;2022-08-21T06:35:15;94320.47;;;30.19;39.13
68179;BME280;54998;42.656;23.382;2022-08-21T06:37:40;94319.44;;;32.50;34.59
68179;BME280;54998;42.656;23.382;2022-08-21T06:40:06;94328.47;;;32.49;34.00
68179;BME280;54998;42.656;23.382;2022-08-21T06:42:32;94319.19;;;33.12;33.99
68179;BME280;54998;42.656;23.382;2022-08-21T06:44:58;94322.31;;;33.56;32.55
68179;BME280;54998;42.656;23.382;2022-08-21T06:47:23;94329.03;;;34.40;31.30
68179;BME280;54998;42.656;23.382;2022-08-21T06:49:49;94326.84;;;35.27;29.83
68179;BME280;54998;42.656;23.382;2022-08-21T06:52:14;94334.47;;;33.99;31.09
68179;BME280;54998;42.656;23.382;2022-08-21T06:54:40;94337.88;;;31.66;34.54
68179;BME280;54998;42.656;23.382;2022-08-21T06:57:06;94333.53;;;27.40;42.11
68179;BME280;54998;42.656;23.382;2022-08-21T06:59:31;94335.59;;;28.32;41.31
68179;BME280;54998;42.656;23.382;2022-08-21T07:01:58;94333.88;;;29.93;37.96
68179;BME280;54998;42.656;23.382;2022-08-21T07:04:26;94333.72;;;30.53;37.80
68179;BME280;54998;42.656;23.382;2022-08-21T07:06:52;94338.13;;;31.21;36.05
68179;BME280;54998;42.656;23.382;2022-08-21T07:09:18;94324.78;;;32.97;33.56
68179;BME280;54998;42.656;23.382;2022-08-21T07:11:45;94325.81;;;34.74;30.75
68179;BME280;54998;42.656;23.382;2022-08-21T07:14:12;94336.19;;;35.56;28.08
68179;BME280;54998;42.656;23.382;2022-08-21T07:16:37;94331.44;;;32.29;32.68
68179;BME280;54998;42.656;23.382;2022-08-21T07:19:03;94343.16;;;31.71;33.20
68179;BME280;54998;42.656;23.382;2022-08-21T07:21:28;94327.00;;;31.67;34.23
68179;BME280;54998;42.656;23.382;2022-08-21T07:23:54;94329.88;;;34.49;29.47
68179;BME280;54998;42.656;23.382;2022-08-21T07:26:21;94326.19;;;34.90;29.05
68179;BME280;54998;42.656;23.382;2022-08-21T07:28:48;94314.75;;;36.57;26.39
68179;BME280;54998;42.656;23.382;2022-08-21T07:31:15;94313.34;;;37.07;26.74
68179;BME280;54998;42.656;23.382;2022-08-21T07:33:41;94303.53;;;33.89;31.12
68179;BME280;54998;42.656;23.382;2022-08-21T07:36:08;94304.53;;;34.61;30.74
68179;BME280;54998;42.656;23.382;2022-08-21T07:38:34;94302.50;;;37.41;26.33
68179;BME280;54998;42.656;23.382;2022-08-21T07:41:01;94303.06;;;36.79;26.93
68179;BME280;54998;42.656;23.382;2022-08-21T07:43:28;94303.91;;;32.90;31.99
68179;BME280;54998;42.656;23.382;2022-08-21T07:45:54;94296.44;;;30.15;36.37
68179;BME280;54998;42.656;23.382;2022-08-21T07:48:21;94295.13;;;32.76;33.34
68179;BME280;54998;42.656;23.382;2022-08-21T07:50:47;94288.59;;;32.54;32.55
68179;BME280;54998;42.656;23.382;2022-08-21T07:53:13;94301.19;;;30.53;36.43
68179;BME280;54998;42.656;23.382;2022-08-21T07:55:39;94306.44;;;31.78;34.83
68179;BME280;54998;42.656;23.382;2022-08-21T07:58:05;94298.19;;;33.52;30.64
68179;BME280;54998;42.656;23.382;2022-08-21T08:00:30;94295.25;;;32.99;32.36
68179;BME280;54998;42.656;23.382;2022-08-21T08:02:56;94297.31;;;30.69;35.93
68179;BME280;54998;42.656;23.382;2022-08-21T08:05:26;94298.50;;;30.18;37.46
68179;BME280;54998;42.656;23.382;2022-08-21T08:07:52;94302.13;;;29.38;38.19
68179;BME280;54998;42.656;23.382;2022-08-21T08:10:19;94301.19;;;29.68;37.89
68179;BME280;54998;42.656;23.382;2022-08-21T08:12:45;94300.63;;;29.82;37.84
68179;BME280;54998;42.656;23.382;2022-08-21T08:15:14;94299.97;;;28.24;41.50
68179;BME280;54998;42.656;23.382;2022-08-21T08:17:40;94303.13;;;28.31;40.92
68179;BME280;54998;42.656;23.382;2022-08-21T08:20:07;94298.09;;;28.76;41.14
68179;BME280;54998;42.656;23.382;2022-08-21T08:22:34;94300.22;;;28.68;41.25
68179;BME280;54998;42.656;23.382;2022-08-21T08:25:00;94309.38;;;27.00;45.82
68179;BME280;54998;42.656;23.382;2022-08-21T08:27:26;94307.53;;;26.26;46.56
68179;BME280;54998;42.656;23.382;2022-08-21T08:29:52;94310.84;;;26.81;45.25
68179;BME280;54998;42.656;23.382;2022-08-21T08:32:18;94306.50;;;27.12;44.85
68179;BME280;54998;42.656;23.382;2022-08-21T08:34:44;94301.03;;;28.02;42.84
68179;BME280;54998;42.656;23.382;2022-08-21T08:37:09;94302.59;;;28.50;42.40
68179;BME280;54998;42.656;23.382;2022-08-21T08:39:36;94307.47;;;27.43;45.76
68179;BME280;54998;42.656;23.382;2022-08-21T08:42:07;94306.81;;;28.15;43.64
68179;BME280;54998;42.656;23.382;2022-08-21T08:44:36;94304.03;;;25.17;49.41
68179;BME280;54998;42.656;23.382;2022-08-21T08:47:03;94309.28;;;24.78;51.21
68179;BME280;54998;42.656;23.382;2022-08-21T08:49:34;94310.94;;;24.62;52.00
68179;BME280;54998;42.656;23.382;2022-08-21T08:52:21;94299.41;;;25.46;50.74
68179;BME280;54998;42.656;23.382;2022-08-21T08:55:23;94301.72;;;25.70;49.80
68179;BME280;54998;42.656;23.382;2022-08-21T08:57:48;94300.66;;;25.66;49.63
68179;BME280;54998;42.656;23.382;2022-08-21T09:00:18;94293.97;;;25.31;50.01
68179;BME280;54998;42.656;23.382;2022-08-21T09:02:45;94296.63;;;24.53;52.34
68179;BME280;54998;42.656;23.382;2022-08-21T09:05:21;94297.84;;;25.06;51.55
68179;BME280;54998;42.656;23.382;2022-08-21T09:10:26;94288.84;;;24.80;51.67
68179;BME280;54998;42.656;23.382;2022-08-21T09:15:58;94285.63;;;24.22;52.52
68179;BME280;54998;42.656;23.382;2022-08-21T09:21:35;94281.25;;;23.94;53.41
68179;BME280;54998;42.656;23.382;2022-08-21T09:24:50;94276.81;;;24.62;51.19
68179;BME280;54998;42.656;23.382;2022-08-21T09:27:15;94277.84;;;25.44;48.88
68179;BME280;54998;42.656;23.382;2022-08-21T09:29:44;94268.47;;;26.45;46.43
68179;BME280;54998;42.656;23.382;2022-08-21T09:32:29;94272.16;;;27.39;44.24
68179;BME280;54998;42.656;23.382;2022-08-21T09:34:58;94271.75;;;26.25;46.50
68179;BME280;54998;42.656;23.382;2022-08-21T09:37:25;94275.66;;;27.81;44.27
68179;BME280;54998;42.656;23.382;2022-08-21T09:39:51;94261.53;;;29.24;40.76
68179;BME280;54998;42.656;23.382;2022-08-21T09:42:28;94269.25;;;30.68;37.58
68179;BME280;54998;42.656;23.382;2022-08-21T09:45:16;94269.72;;;29.22;39.82
68179;BME280;54998;42.656;23.382;2022-08-21T09:47:42;94270.09;;;28.80;40.48
68179;BME280;54998;42.656;23.382;2022-08-21T09:50:14;94264.59;;;28.15;42.10
68179;BME280;54998;42.656;23.382;2022-08-21T09:52:49;94267.72;;;26.87;45.07
68179;BME280;54998;42.656;23.382;2022-08-21T09:55:20;94260.91;;;26.54;45.63
68179;BME280;54998;42.656;23.382;2022-08-21T09:58:05;94263.41;;;26.33;46.28
68179;BME280;54998;42.656;23.382;2022-08-21T10:00:33;94258.72;;;26.40;45.88
68179;BME280;54998;42.656;23.382;2022-08-21T10:03:28;94260.34;;;25.82;47.03
68179;BME280;54998;42.656;23.382;2022-08-21T10:06:00;94264.72;;;25.71;47.95
68179;BME280;54998;42.656;23.382;2022-08-21T10:08:28;94247.13;;;25.45;48.89
68179;BME280;54998;42.656;23.382;2022-08-21T10:11:11;94248.28;;;25.10;49.44
68179;BME280;54998;42.656;23.382;2022-08-21T10:36:05;94244.69;;;25.65;48.98
68179;BME280;54998;42.656;23.382;2022-08-21T10:38:59;94239.06;;;25.56;49.09
68179;BME280;54998;42.656;23.382;2022-08-21T10:55:40;94221.34;;;26.86;45.18
68179;BME280;54998;42.656;23.382;2022-08-21T10:58:10;94209.50;;;27.93;42.82
68179;BME280;54998;42.656;23.382;2022-08-21T11:00:48;94202.13;;;28.05;42.29
68179;BME280;54998;42.656;23.382;2022-08-21T11:08:50;94192.06;;;31.99;33.21
68179;BME280;54998;42.656;23.382;2022-08-21T11:11:30;94186.19;;;31.83;34.32
68179;BME280;54998;42.656;23.382;2022-08-21T11:14:09;94179.41;;;32.09;32.81
68179;BME280;54998;42.656;23.382;2022-08-21T11:21:52;94168.53;;;31.59;33.83
68179;BME280;54998;42.656;23.382;2022-08-21T11:27:26;94173.75;;;31.64;34.25
68179;BME280;54998;42.656;23.382;2022-08-21T11:29:55;94170.03;;;30.84;35.58
68179;BME280;54998;42.656;23.382;2022-08-21T11:43:47;94169.13;;;28.13;40.97
68179;BME280;54998;42.656;23.382;2022-08-21T11:49:26;94170.06;;;26.94;41.16
68179;BME280;54998;42.656;23.382;2022-08-21T11:54:59;94169.97;;;26.73;42.44
68179;BME280;54998;42.656;23.382;2022-08-21T12:02:40;94159.63;;;26.09;44.72
68179;BME280;54998;42.656;23.382;2022-08-21T12:05:10;94163.50;;;25.64;44.61
68179;BME280;54998;42.656;23.382;2022-08-21T12:07:42;94151.34;;;25.57;44.65
68179;BME280;54998;42.656;23.382;2022-08-21T12:10:14;94142.47;;;25.64;44.94
68179;BME280;54998;42.656;23.382;2022-08-21T12:12:42;94143.41;;;25.85;45.83
68179;BME280;54998;42.656;23.382;2022-08-21T12:18:05;94143.28;;;26.01;44.50
68179;BME280;54998;42.656;23.382;2022-08-21T12:21:34;94161.00;;;25.84;45.20
68179;BME280;54998;42.656;23.382;2022-08-21T12:26:03;94147.47;;;25.11;46.51
68179;BME280;54998;42.656;23.382;2022-08-21T12:28:35;94150.09;;;25.11;46.66
68179;BME280;54998;42.656;23.382;2022-08-21T12:31:01;94160.47;;;24.73;47.56
68179;BME280;54998;42.656;23.382;2022-08-21T12:33:36;94160.63;;;24.45;47.32
68179;BME280;54998;42.656;23.382;2022-08-21T12:36:07;94163.34;;;24.50;47.46
68179;BME280;54998;42.656;23.382;2022-08-21T12:38:41;94158.81;;;24.45;47.05
68179;BME280;54998;42.656;23.382;2022-08-21T12:41:17;94156.72;;;24.47;48.13
68179;BME280;54998;42.656;23.382;2022-08-21T12:43:53;94160.00;;;24.54;48.03
68179;BME280;54998;42.656;23.382;2022-08-21T12:46:46;94159.72;;;24.34;47.94
68179;BME280;54998;42.656;23.382;2022-08-21T12:52:30;94148.00;;;24.03;49.96
68179;BME280;54998;42.656;23.382;2022-08-21T12:54:56;94155.41;;;24.06;50.14
68179;BME280;54998;42.656;23.382;2022-08-21T12:57:26;94152.53;;;24.07;50.24
68179;BME280;54998;42.656;23.382;2022-08-21T12:59:59;94143.03;;;24.01;51.37
68179;BME280;54998;42.656;23.382;2022-08-21T13:02:36;94133.88;;;24.04;51.34
68179;BME280;54998;42.656;23.382;2022-08-21T13:05:05;94142.28;;;24.06;52.19
68179;BME280;54998;42.656;23.382;2022-08-21T13:07:33;94137.50;;;24.03;52.25
68179;BME280;54998;42.656;23.382;2022-08-21T13:10:06;94142.84;;;23.74;53.24
68179;BME280;54998;42.656;23.382;2022-08-21T13:12:35;94144.63;;;23.68;54.38
68179;BME280;54998;42.656;23.382;2022-08-21T13:15:04;94143.72;;;23.63;54.68
68179;BME280;54998;42.656;23.382;2022-08-21T13:17:32;94143.69;;;23.29;55.59
68179;BME280;54998;42.656;23.382;2022-08-21T13:22:28;94128.16;;;23.39;55.36
68179;BME280;54998;42.656;23.382;2022-08-21T13:24:53;94130.22;;;23.54;55.36
68179;BME280;54998;42.656;23.382;2022-08-21T13:27:27;94131.56;;;23.56;55.67
68179;BME280;54998;42.656;23.382;2022-08-21T13:30:12;94135.00;;;23.40;55.21
68179;BME280;54998;42.656;23.382;2022-08-21T13:32:44;94125.56;;;23.56;55.01
68179;BME280;54998;42.656;23.382;2022-08-21T13:37:43;94110.72;;;23.45;54.92
68179;BME280;54998;42.656;23.382;2022-08-21T13:40:15;94101.97;;;23.22;56.19
68179;BME280;54998;42.656;23.382;2022-08-21T13:42:43;94106.41;;;23.22;56.93
68179;BME280;54998;42.656;23.382;2022-08-21T13:45:22;94114.13;;;23.28;56.71
68179;BME280;54998;42.656;23.382;2022-08-21T13:47:48;94118.56;;;23.28;57.17
68179;BME280;54998;42.656;23.382;2022-08-21T13:50:15;94120.31;;;23.39;57.38
68179;BME280;54998;42.656;23.382;2022-08-21T13:52:56;94121.81;;;23.69;56.71
68179;BME280;54998;42.656;23.382;2022-08-21T13:55:23;94122.47;;;23.76;55.97
68179;BME280;54998;42.656;23.382;2022-08-21T13:57:59;94127.31;;;23.84;54.43
68179;BME280;54998;42.656;23.382;2022-08-21T14:00:27;94114.69;;;23.81;55.17
68179;BME280;54998;42.656;23.382;2022-08-21T14:03:00;94111.81;;;23.99;55.29
68179;BME280;54998;42.656;23.382;2022-08-21T14:05:30;94099.97;;;23.97;56.59
68179;BME280;54998;42.656;23.382;2022-08-21T14:08:08;94112.31;;;23.80;57.55
68179;BME280;54998;42.656;23.382;2022-08-21T14:10:56;94109.69;;;23.63;57.83
68179;BME280;54998;42.656;23.382;2022-08-21T14:13:38;94109.56;;;23.74;57.37
68179;BME280;54998;42.656;23.382;2022-08-21T14:16:23;94107.28;;;23.61;56.99
68179;BME280;54998;42.656;23.382;2022-08-21T14:21:32;94098.59;;;23.55;57.99
68179;BME280;54998;42.656;23.382;2022-08-21T14:24:05;94097.78;;;23.21;59.62
68179;BME280;54998;42.656;23.382;2022-08-21T14:26:33;94102.44;;;23.02;60.74
68179;BME280;54998;42.656;23.382;2022-08-21T14:29:00;94105.00;;;23.14;60.07
68179;BME280;54998;42.656;23.382;2022-08-21T14:31:29;94108.34;;;23.43;58.88
68179;BME280;54998;42.656;23.382;2022-08-21T14:33:55;94105.22;;;23.63;57.83
68179;BME280;54998;42.656;23.382;2022-08-21T14:36:21;94109.97;;;24.00;56.63
68179;BME280;54998;42.656;23.382;2022-08-21T14:38:47;94115.06;;;24.29;56.11
68179;BME280;54998;42.656;23.382;2022-08-21T14:41:22;94109.72;;;24.63;54.91
68179;BME280;54998;42.656;23.382;2022-08-21T14:43:49;94110.09;;;24.71;54.48